Time;durP1;ratioP1;P1;durP2;ratioP2;P2;SDS_P1;SDS_P2;PMS_P1;PMS_P2;Temp;Humidity;BMP_temperature;BMP_pressure;BME280_temperature;BME280_humidity;BME280_pressure;Samples;Min_cycle;Max_cycle;Signal;HPM_P1;HPM_P2
2022/07/07 04:00:20;;;;;;;4.45;3.78;;;14.20;99.90;;;;;;6058695;22;20016;-73
2022/07/07 04:02:46;;;;;;;5.80;3.50;;;14.30;99.90;;;;;;5014613;28;20499;-76
2022/07/07 04:05:11;;;;;;;4.93;3.70;;;14.30;99.90;;;;;;5014467;28;20109;-75
2022/07/07 04:07:37;;;;;;;4.93;3.70;;;14.40;99.90;;;;;;5014156;28;20037;-75
2022/07/07 04:10:03;;;;;;;5.43;3.58;;;14.50;99.90;;;;;;5014621;28;20384;-75
2022/07/07 04:12:29;;;;;;;5.65;3.47;;;14.50;99.90;;;;;;5014020;28;20031;-75
2022/07/07 04:14:55;;;;;;;5.03;3.33;;;14.50;99.90;;;;;;5014292;28;20030;-75
2022/07/07 04:17:21;;;;;;;6.70;3.25;;;14.60;99.90;;;;;;5013480;28;20078;-75
2022/07/07 04:19:47;;;;;;;4.18;3.40;;;14.60;99.90;;;;;;5014509;28;20109;-75
2022/07/07 04:22:12;;;;;;;5.22;3.22;;;14.60;99.90;;;;;;5014010;28;20035;-75
2022/07/07 04:24:38;;;;;;;8.32;3.50;;;14.70;99.90;;;;;;5021684;28;20108;-75
2022/07/07 04:27:04;;;;;;;6.78;3.42;;;14.70;99.90;;;;;;5032645;28;20402;-75
2022/07/07 04:29:30;;;;;;;5.18;3.08;;;14.80;99.90;;;;;;5033826;28;20165;-75
2022/07/07 04:31:56;;;;;;;6.53;3.33;;;14.90;99.90;;;;;;5033866;28;20036;-75
2022/07/07 04:34:22;;;;;;;6.15;3.20;;;14.90;99.90;;;;;;5034158;28;20038;-74
2022/07/07 04:36:48;;;;;;;3.58;3.03;;;15.00;99.90;;;;;;5033818;28;20078;-75
2022/07/07 04:39:13;;;;;;;3.90;2.90;;;15.10;99.90;;;;;;5034097;28;20030;-75
2022/07/07 04:41:39;;;;;;;4.50;3.08;;;15.20;99.90;;;;;;5033687;28;20038;-75
2022/07/07 04:44:05;;;;;;;5.57;3.22;;;15.30;99.90;;;;;;5033467;28;20042;-75
2022/07/07 04:46:31;;;;;;;4.90;3.08;;;15.30;99.90;;;;;;5035905;28;20109;-75
2022/07/07 04:48:56;;;;;;;4.93;2.80;;;15.40;99.90;;;;;;5035830;28;20041;-76
2022/07/07 04:51:23;;;;;;;4.82;3.10;;;15.40;99.90;;;;;;5037320;28;20069;-78
2022/07/07 04:53:49;;;;;;;4.38;2.53;;;15.40;99.90;;;;;;5037539;28;20069;-73
2022/07/07 04:56:15;;;;;;;5.63;2.85;;;15.40;99.90;;;;;;5037299;28;20028;-74
2022/07/07 04:58:41;;;;;;;5.03;2.55;;;15.30;99.90;;;;;;5036864;28;20044;-75
2022/07/07 05:01:08;;;;;;;5.78;2.60;;;15.20;99.90;;;;;;5036831;28;20045;-75
2022/07/07 05:03:33;;;;;;;4.28;2.40;;;15.20;99.90;;;;;;5037187;28;20037;-74
2022/07/07 05:05:59;;;;;;;7.05;2.30;;;15.20;99.90;;;;;;5036911;28;20034;-75
2022/07/07 05:08:25;;;;;;;4.20;2.10;;;15.40;99.90;;;;;;5035494;28;20038;-75
2022/07/07 05:10:50;;;;;;;2.17;1.80;;;15.60;98.50;;;;;;5035542;28;20066;-78
2022/07/07 05:13:16;;;;;;;6.32;2.25;;;16.00;98.10;;;;;;5036784;28;20033;-75
2022/07/07 05:15:41;;;;;;;2.70;1.95;;;16.30;96.70;;;;;;5038617;28;20080;-75
2022/07/07 05:18:07;;;;;;;2.47;1.63;;;16.70;96.10;;;;;;5036124;28;20373;-74
2022/07/07 05:20:33;;;;;;;2.75;1.92;;;17.00;95.20;;;;;;5035385;28;20048;-74
2022/07/07 05:22:58;;;;;;;3.85;2.00;;;17.10;94.90;;;;;;5036747;28;20037;-74
2022/07/07 05:25:24;;;;;;;8.32;2.15;;;17.20;94.80;;;;;;5037171;28;20042;-75
2022/07/07 05:27:50;;;;;;;5.88;1.77;;;17.20;94.90;;;;;;5037112;28;20061;-75
2022/07/07 05:30:16;;;;;;;3.53;1.70;;;17.20;94.90;;;;;;5035173;28;20038;-75
2022/07/07 05:32:41;;;;;;;4.10;1.65;;;17.30;93.80;;;;;;5036670;28;20029;-75
2022/07/07 05:35:07;;;;;;;3.03;1.40;;;17.40;93.30;;;;;;5036550;28;20034;-75
2022/07/07 05:37:33;;;;;;;4.00;1.73;;;17.60;92.80;;;;;;5036236;28;20041;-75
2022/07/07 05:39:59;;;;;;;3.47;2.13;;;17.90;92.50;;;;;;5036592;28;20578;-75
2022/07/07 05:42:24;;;;;;;4.13;1.70;;;18.10;91.50;;;;;;5036251;28;20034;-76
2022/07/07 05:44:50;;;;;;;4.00;1.70;;;18.20;92.20;;;;;;5036201;28;20038;-75
2022/07/07 05:47:16;;;;;;;6.03;1.70;;;18.20;93.10;;;;;;5036339;28;20085;-75
2022/07/07 05:49:41;;;;;;;3.08;1.80;;;18.20;92.50;;;;;;5036690;28;20088;-75
2022/07/07 05:52:07;;;;;;;3.35;1.40;;;18.20;92.00;;;;;;5036204;28;20432;-76
2022/07/07 05:54:33;;;;;;;4.95;1.80;;;18.20;92.10;;;;;;5034934;28;20522;-75
2022/07/07 05:56:58;;;;;;;3.15;1.42;;;18.40;92.00;;;;;;5035078;28;20037;-76
2022/07/07 05:59:24;;;;;;;2.95;1.70;;;18.40;91.50;;;;;;5036320;28;20056;-75
2022/07/07 06:01:49;;;;;;;2.55;1.80;;;18.70;91.00;;;;;;5035629;28;20034;-76
2022/07/07 06:04:15;;;;;;;4.43;1.73;;;19.00;91.70;;;;;;5036219;28;20487;-76
2022/07/07 06:06:40;;;;;;;4.15;1.55;;;19.10;90.20;;;;;;5036000;28;20029;-76
2022/07/07 06:09:06;;;;;;;2.47;1.40;;;19.10;90.30;;;;;;5036011;28;20046;-76
2022/07/07 06:11:32;;;;;;;3.15;1.45;;;19.00;90.30;;;;;;5035379;28;20035;-75
2022/07/07 06:13:57;;;;;;;6.47;1.90;;;19.00;90.20;;;;;;5036208;28;20065;-75
2022/07/07 06:16:56;;;;;;;5.18;1.52;;;19.00;91.00;;;;;;5035773;28;20034;-76
2022/07/07 06:19:15;;;;;;;4.53;1.50;;;19.10;90.50;;;;;;5034544;28;20030;-75
2022/07/07 06:21:41;;;;;;;6.20;1.90;;;19.20;91.30;;;;;;5036162;28;20038;-76
2022/07/07 06:24:08;;;;;;;2.90;1.60;;;19.20;90.20;;;;;;5035480;28;20041;-76
2022/07/07 06:26:33;;;;;;;4.20;1.67;;;19.00;90.00;;;;;;5035503;28;20084;-76
2022/07/07 06:28:59;;;;;;;3.55;1.55;;;18.90;89.90;;;;;;5035717;28;20538;-76
2022/07/07 06:31:24;;;;;;;3.28;1.63;;;18.70;90.20;;;;;;5035890;28;20101;-76
2022/07/07 06:33:50;;;;;;;5.72;1.65;;;18.60;90.30;;;;;;5036060;28;20049;-75
2022/07/07 06:36:16;;;;;;;2.55;1.48;;;18.50;90.70;;;;;;5035714;28;20045;-74
2022/07/07 06:38:42;;;;;;;6.00;1.60;;;18.40;90.90;;;;;;5035608;28;20112;-75
2022/07/07 06:41:07;;;;;;;3.22;1.60;;;18.30;91.10;;;;;;5035630;28;20172;-76
2022/07/07 06:43:33;;;;;;;3.58;1.48;;;18.20;92.40;;;;;;5034339;28;20041;-76
2022/07/07 06:45:58;;;;;;;9.65;1.80;;;18.10;91.90;;;;;;5035996;28;20038;-81
2022/07/07 06:48:24;;;;;;;3.53;1.80;;;18.00;91.50;;;;;;5036680;28;20502;-76
2022/07/07 06:50:49;;;;;;;3.72;1.60;;;18.00;92.20;;;;;;5035179;28;20034;-76
2022/07/07 06:53:15;;;;;;;6.95;1.85;;;17.90;92.10;;;;;;5035157;28;20034;-76
2022/07/07 06:55:42;;;;;;;6.40;1.70;;;17.80;91.80;;;;;;5035202;28;20042;-75
2022/07/07 06:58:08;;;;;;;5.95;1.85;;;17.80;92.60;;;;;;5035389;28;20025;-75
2022/07/07 07:00:33;;;;;;;2.95;1.88;;;17.80;93.00;;;;;;5034948;28;20037;-76
2022/07/07 07:02:59;;;;;;;3.78;1.63;;;17.90;92.60;;;;;;5035644;28;20443;-76
2022/07/07 07:05:25;;;;;;;5.32;1.88;;;18.00;92.30;;;;;;5035118;28;20046;-76
2022/07/07 07:07:51;;;;;;;6.80;1.90;;;18.10;91.90;;;;;;5034724;28;20034;-76
2022/07/07 07:10:16;;;;;;;4.32;2.13;;;18.10;91.80;;;;;;5033941;28;20034;-76
2022/07/07 07:12:42;;;;;;;5.60;1.90;;;18.10;92.50;;;;;;5034970;28;20046;-76
2022/07/07 07:15:08;;;;;;;4.13;1.88;;;18.20;93.10;;;;;;5035169;28;20065;-76
2022/07/07 07:17:33;;;;;;;3.25;1.40;;;18.10;91.90;;;;;;5033350;28;20041;-76
2022/07/07 07:19:59;;;;;;;4.80;1.80;;;18.10;92.30;;;;;;5035161;28;20041;-76
2022/07/07 07:22:25;;;;;;;3.88;2.08;;;18.00;93.60;;;;;;5034906;28;20034;-76
2022/07/07 07:24:51;;;;;;;6.65;1.80;;;18.00;93.10;;;;;;5035157;28;20081;-76
2022/07/07 07:27:17;;;;;;;4.35;1.90;;;18.10;92.50;;;;;;5034267;28;20539;-76
2022/07/07 07:29:43;;;;;;;7.32;2.00;;;18.10;93.40;;;;;;5034964;28;20040;-77
2022/07/07 07:32:08;;;;;;;3.30;1.95;;;18.10;94.20;;;;;;5034698;28;20033;-76
2022/07/07 07:34:34;;;;;;;6.13;1.77;;;18.20;93.40;;;;;;5034504;28;20148;-76
2022/07/07 07:37:00;;;;;;;5.55;2.10;;;18.40;93.70;;;;;;5034438;28;20029;-76
2022/07/07 07:39:26;;;;;;;5.30;1.90;;;18.50;93.80;;;;;;5034757;28;20041;-76
2022/07/07 07:41:52;;;;;;;5.60;2.45;;;18.60;92.00;;;;;;5034264;28;20084;-75
2022/07/07 07:45:09;;;;;;;4.45;1.80;;;18.70;91.90;;;;;;5034659;28;20070;-76
2022/07/07 07:47:04;;;;;;;3.72;1.92;;;18.70;92.00;;;;;;5033982;28;20033;-76
2022/07/07 07:49:30;;;;;;;6.78;2.47;;;18.80;92.20;;;;;;5034116;28;20518;-76
2022/07/07 07:51:55;;;;;;;5.25;2.25;;;18.90;92.20;;;;;;5034679;28;20041;-76
2022/07/07 07:54:21;;;;;;;4.45;1.88;;;19.00;91.60;;;;;;5034395;28;20137;-76
2022/07/07 07:56:47;;;;;;;4.05;1.90;;;19.30;91.20;;;;;;5034517;28;20030;-76
2022/07/07 07:59:13;;;;;;;3.83;1.90;;;19.50;91.50;;;;;;5034413;28;20064;-75
2022/07/07 08:01:39;;;;;;;7.20;2.22;;;19.60;91.00;;;;;;5033796;28;20060;-76
2022/07/07 08:04:05;;;;;;;5.10;2.03;;;19.70;90.80;;;;;;5034185;28;20049;-76
2022/07/07 08:06:31;;;;;;;5.60;1.92;;;19.60;90.10;;;;;;5034248;28;20029;-76
2022/07/07 08:08:56;;;;;;;6.28;2.00;;;19.70;90.00;;;;;;5034482;28;20407;-76
2022/07/07 08:11:22;;;;;;;4.82;1.80;;;20.10;90.50;;;;;;5034125;28;20076;-76
2022/07/07 08:13:48;;;;;;;3.63;1.70;;;20.40;89.10;;;;;;5034491;28;20132;-76
2022/07/07 08:16:13;;;;;;;5.28;1.45;;;20.50;89.10;;;;;;5034055;28;20045;-76
2022/07/07 08:18:39;;;;;;;4.78;1.73;;;20.40;88.60;;;;;;5032180;28;20360;-76
2022/07/07 08:21:04;;;;;;;4.75;1.52;;;20.30;89.60;;;;;;5014678;28;20031;-76
2022/07/07 08:23:30;;;;;;;4.72;1.60;;;20.40;89.10;;;;;;5017374;28;20613;-76
2022/07/07 08:25:56;;;;;;;2.90;1.65;;;20.60;90.00;;;;;;5015340;28;20043;-76
2022/07/07 08:28:22;;;;;;;3.88;1.80;;;20.80;87.70;;;;;;5017539;28;20361;-76
2022/07/07 08:30:47;;;;;;;5.55;1.80;;;20.70;86.30;;;;;;5015398;28;20034;-76
2022/07/07 08:33:13;;;;;;;3.83;1.65;;;20.60;87.00;;;;;;5017434;28;20081;-76
2022/07/07 08:35:38;;;;;;;4.97;1.70;;;20.80;88.40;;;;;;5017175;28;20034;-76
2022/07/07 08:38:04;;;;;;;4.82;1.90;;;21.00;86.70;;;;;;5015461;28;20035;-76
2022/07/07 08:40:29;;;;;;;2.97;1.80;;;20.90;86.20;;;;;;5016573;28;20046;-76
2022/07/07 08:42:55;;;;;;;6.90;2.10;;;20.80;86.90;;;;;;5017238;28;20038;-77
2022/07/07 08:45:21;;;;;;;2.83;2.03;;;20.60;87.70;;;;;;5016767;28;20129;-77
2022/07/07 08:47:47;;;;;;;3.58;2.00;;;20.50;88.30;;;;;;5017031;28;20105;-77
2022/07/07 08:50:12;;;;;;;4.53;2.20;;;20.50;89.50;;;;;;5015079;28;20034;-76
2022/07/07 08:52:39;;;;;;;4.50;2.53;;;20.40;89.70;;;;;;5016659;28;20501;-76
2022/07/07 08:55:06;;;;;;;3.33;2.10;;;20.30;90.10;;;;;;5016714;28;20467;-76
2022/07/07 08:57:32;;;;;;;4.88;2.20;;;20.20;90.60;;;;;;5015316;28;20034;-79
2022/07/07 08:59:57;;;;;;;4.28;2.10;;;20.20;91.60;;;;;;5017499;28;20485;-77
2022/07/07 09:02:24;;;;;;;6.18;2.47;;;20.30;91.70;;;;;;5017550;28;20488;-75
2022/07/07 09:04:51;;;;;;;7.13;2.28;;;20.20;91.60;;;;;;5016990;28;20031;-77
2022/07/07 09:07:18;;;;;;;6.57;2.80;;;19.80;92.80;;;;;;5016439;28;20035;-77
2022/07/07 09:09:52;;;;;;;5.80;2.40;;;19.60;93.30;;;;;;5015297;28;20044;-76
2022/07/07 09:12:19;;;;;;;4.57;2.45;;;19.40;94.40;;;;;;5015958;28;20038;-76
2022/07/07 09:14:54;;;;;;;7.28;2.40;;;19.10;94.80;;;;;;5015190;28;20042;-74
2022/07/07 09:17:31;;;;;;;6.35;2.53;;;19.00;95.20;;;;;;5016542;28;20026;-76
2022/07/07 09:19:59;;;;;;;4.72;2.60;;;19.20;95.80;;;;;;5006228;28;20038;-74
2022/07/07 09:22:40;;;;;;;3.00;2.50;;;19.40;95.90;;;;;;4996118;28;20457;-74
2022/07/07 09:25:07;;;;;;;7.32;2.45;;;19.70;95.00;;;;;;4996804;28;20039;-74
2022/07/07 09:27:32;;;;;;;3.92;2.38;;;20.10;94.40;;;;;;4994746;28;20082;-74
2022/07/07 09:29:59;;;;;;;7.18;2.60;;;20.40;93.80;;;;;;4997400;28;20086;-74
2022/07/07 09:32:24;;;;;;;2.55;2.05;;;20.70;93.40;;;;;;5014083;28;20030;-75
2022/07/07 09:34:50;;;;;;;5.38;2.33;;;20.90;93.20;;;;;;5015787;28;20030;-75
2022/07/07 09:40:00;;;;;;;4.40;2.53;;;21.20;92.30;;;;;;5015909;28;20039;-75
2022/07/07 09:42:33;;;;;;;6.32;2.65;;;21.20;92.20;;;;;;5016135;28;20061;-74
2022/07/07 09:45:03;;;;;;;4.18;2.90;;;21.20;92.80;;;;;;5015821;28;20125;-74
2022/07/07 09:47:30;;;;;;;3.28;2.60;;;21.10;92.40;;;;;;5015436;28;20604;-73
2022/07/07 09:50:03;;;;;;;6.00;2.42;;;21.00;92.80;;;;;;5016318;28;20583;-74
2022/07/07 09:52:31;;;;;;;5.80;2.38;;;21.20;92.80;;;;;;5015594;28;20097;-73
2022/07/07 09:54:58;;;;;;;5.95;2.78;;;21.30;92.70;;;;;;5014500;28;20041;-73
2022/07/07 09:57:23;;;;;;;4.07;2.50;;;21.30;92.80;;;;;;5014046;28;20061;-75
2022/07/07 09:59:49;;;;;;;5.95;2.53;;;21.20;92.40;;;;;;5015971;28;20048;-74
2022/07/07 10:02:22;;;;;;;4.15;2.63;;;21.10;92.20;;;;;;5015291;28;20497;-73
2022/07/07 10:04:50;;;;;;;5.90;2.50;;;21.00;92.60;;;;;;5015541;28;20069;-74
2022/07/07 10:07:19;;;;;;;3.25;2.65;;;21.00;92.80;;;;;;5014249;28;20034;-74
2022/07/07 10:09:49;;;;;;;4.05;2.53;;;21.00;92.80;;;;;;5015869;28;20045;-74
2022/07/07 10:12:17;;;;;;;5.47;2.22;;;21.10;92.30;;;;;;5014884;28;20026;-75
2022/07/07 10:14:44;;;;;;;2.72;1.88;;;21.30;92.40;;;;;;5015694;28;20538;-75
2022/07/07 10:17:11;;;;;;;2.92;2.00;;;21.60;91.80;;;;;;5015711;28;20034;-77
2022/07/07 10:19:37;;;;;;;4.22;1.90;;;22.00;91.60;;;;;;5014925;28;20035;-76
2022/07/07 10:22:04;;;;;;;3.70;1.90;;;22.20;90.80;;;;;;5014789;28;20042;-72
2022/07/07 10:24:32;;;;;;;3.72;1.90;;;22.30;91.30;;;;;;5015198;28;20472;-77
2022/07/07 10:26:59;;;;;;;2.47;1.98;;;22.40;90.80;;;;;;5015187;28;20026;-74
2022/07/07 10:29:49;;;;;;;4.22;2.17;;;22.40;90.60;;;;;;5014488;28;20034;-74
2022/07/07 10:32:17;;;;;;;3.75;2.13;;;22.40;90.80;;;;;;5015690;28;20037;-76
2022/07/07 10:34:51;;;;;;;5.50;2.40;;;22.30;90.90;;;;;;5015850;28;20027;-76
2022/07/07 10:37:18;;;;;;;3.90;3.00;;;22.30;90.70;;;;;;5015834;28;20031;-74
2022/07/07 10:39:49;;;;;;;3.63;2.30;;;22.20;91.00;;;;;;5016210;28;20031;-75
2022/07/07 10:42:30;;;;;;;6.47;2.50;;;22.10;90.90;;;;;;5015806;28;20089;-77
2022/07/07 10:44:57;;;;;;;4.55;2.47;;;22.00;90.70;;;;;;5013806;28;20045;-77
2022/07/07 10:47:27;;;;;;;5.22;3.30;;;22.00;90.90;;;;;;5015447;28;20034;-77
2022/07/07 10:49:55;;;;;;;11.88;6.13;;;21.90;91.10;;;;;;5015696;28;20090;-78
2022/07/07 10:52:38;;;;;;;8.85;3.63;;;22.00;91.60;;;;;;5015558;28;20820;-76
2022/07/07 10:55:04;;;;;;;7.05;3.95;;;22.00;91.10;;;;;;5015697;28;20046;-74
2022/07/07 10:57:42;;;;;;;4.53;2.55;;;22.10;91.00;;;;;;5013878;28;20030;-74
2022/07/07 11:00:26;;;;;;;4.18;2.28;;;22.50;91.10;;;;;;5015532;28;20039;-74
2022/07/07 11:03:08;;;;;;;6.05;3.33;;;22.60;90.50;;;;;;5015603;28;20035;-74
2022/07/07 11:05:35;;;;;;;6.20;3.83;;;22.50;90.20;;;;;;5015358;28;20117;-74
2022/07/07 11:08:03;;;;;;;4.88;2.70;;;22.10;90.90;;;;;;5015288;28;20030;-74
2022/07/07 11:10:42;;;;;;;3.75;2.58;;;21.80;92.10;;;;;;5015270;28;20039;-74
2022/07/07 11:13:17;;;;;;;4.30;3.00;;;21.50;92.10;;;;;;5015364;28;20111;-74
2022/07/07 11:15:49;;;;;;;5.40;2.92;;;21.40;92.60;;;;;;5015256;28;20038;-74
2022/07/07 11:18:16;;;;;;;5.63;3.58;;;21.10;93.80;;;;;;5014958;28;20082;-74
2022/07/07 11:21:00;;;;;;;3.75;2.70;;;20.80;94.20;;;;;;5014958;28;20496;-74
2022/07/07 11:23:47;;;;;;;5.82;2.75;;;20.80;94.10;;;;;;5015089;28;20034;-74
2022/07/07 11:26:16;;;;;;;4.03;2.90;;;20.90;94.00;;;;;;5013596;28;20532;-74
2022/07/07 11:28:41;;;;;;;4.93;2.78;;;21.30;94.00;;;;;;5015052;28;20128;-74
2022/07/07 11:31:09;;;;;;;4.80;2.58;;;21.60;92.80;;;;;;5013614;28;20453;-74
2022/07/07 11:33:35;;;;;;;7.85;2.70;;;22.00;92.40;;;;;;5014744;28;20592;-76
2022/07/07 11:36:13;;;;;;;4.78;2.70;;;22.00;91.90;;;;;;5013420;28;20038;-74
2022/07/07 11:38:39;;;;;;;3.55;2.30;;;22.10;91.80;;;;;;5014805;28;20109;-74
2022/07/07 11:41:05;;;;;;;5.97;2.40;;;22.10;91.80;;;;;;5014845;28;20030;-74
2022/07/07 11:43:31;;;;;;;4.05;2.45;;;22.20;91.40;;;;;;5014746;28;20035;-74
2022/07/07 11:45:56;;;;;;;3.45;2.40;;;22.30;91.20;;;;;;5014105;28;20046;-75
2022/07/07 11:48:22;;;;;;;4.65;2.67;;;22.30;91.40;;;;;;5014726;28;20042;-75
2022/07/07 11:50:49;;;;;;;4.72;2.60;;;22.40;90.80;;;;;;5014720;28;20038;-76
2022/07/07 11:53:15;;;;;;;3.53;2.50;;;22.40;91.00;;;;;;5014650;28;20069;-75
2022/07/07 11:55:42;;;;;;;6.55;2.35;;;22.10;91.20;;;;;;5013998;28;20030;-75
2022/07/07 11:58:09;;;;;;;3.47;2.50;;;21.80;92.20;;;;;;5014432;28;20092;-75
2022/07/07 12:00:37;;;;;;;7.05;2.58;;;21.50;92.90;;;;;;5013950;28;20038;-75
2022/07/07 12:03:05;;;;;;;4.32;2.28;;;21.20;93.40;;;;;;5014720;28;20097;-75
2022/07/07 12:05:43;;;;;;;5.60;2.60;;;21.10;93.40;;;;;;5014470;28;20039;-77
2022/07/07 12:08:09;;;;;;;3.63;2.10;;;21.00;93.60;;;;;;5014518;28;20062;-77
2022/07/07 12:10:41;;;;;;;4.20;2.45;;;21.20;93.70;;;;;;5014086;28;20031;-76
2022/07/07 12:13:14;;;;;;;3.65;2.10;;;21.70;93.10;;;;;;5014650;28;20142;-76
2022/07/07 12:15:46;;;;;;;4.47;2.33;;;22.10;92.20;;;;;;5014476;28;20034;-77
2022/07/07 12:18:12;;;;;;;6.43;2.28;;;22.30;93.00;;;;;;5014111;28;20105;-76
2022/07/07 12:20:39;;;;;;;3.10;2.28;;;22.70;92.30;;;;;;5014314;28;20098;-77
2022/07/07 12:23:08;;;;;;;3.63;2.15;;;22.60;92.10;;;;;;5014407;28;20042;-77
2022/07/07 12:25:35;;;;;;;3.88;2.33;;;22.90;92.00;;;;;;5013899;28;20089;-77
2022/07/07 12:28:03;;;;;;;4.43;2.45;;;23.10;91.50;;;;;;5013843;28;20046;-77
2022/07/07 12:30:31;;;;;;;6.53;2.35;;;23.20;91.90;;;;;;5013989;28;20455;-77
2022/07/07 12:32:58;;;;;;;5.32;2.30;;;23.10;92.20;;;;;;5012811;28;20471;-78
2022/07/07 12:35:34;;;;;;;3.35;2.40;;;22.80;92.50;;;;;;5014183;28;20066;-77
2022/07/07 12:38:02;;;;;;;4.22;2.28;;;22.40;92.50;;;;;;5014117;28;20034;-77
2022/07/07 12:40:32;;;;;;;4.45;2.40;;;21.90;93.40;;;;;;5013882;28;20030;-77
2022/07/07 12:43:11;;;;;;;5.15;2.92;;;21.50;94.20;;;;;;5014156;28;20463;-78
2022/07/07 12:45:38;;;;;;;6.38;2.78;;;21.20;95.40;;;;;;5012538;28;20042;-78
2022/07/07 12:48:14;;;;;;;5.97;3.08;;;20.90;95.90;;;;;;5014058;28;20034;-77
2022/07/07 12:50:40;;;;;;;5.28;3.00;;;20.60;97.50;;;;;;5013429;28;20042;-77
2022/07/07 12:53:07;;;;;;;4.70;3.10;;;20.20;98.60;;;;;;5014283;28;20404;-77
2022/07/07 12:55:33;;;;;;;4.78;3.30;;;19.80;99.90;;;;;;5012504;28;20492;-78
2022/07/07 12:58:04;;;;;;;4.85;3.70;;;19.40;99.90;;;;;;5013845;28;20070;-77
2022/07/07 13:00:30;;;;;;;3.25;2.10;;;19.10;99.90;;;;;;5013356;28;20451;-77
2022/07/07 13:02:56;;;;;;;3.13;1.70;;;18.80;99.90;;;;;;5013705;28;20038;-78
2022/07/07 13:05:21;;;;;;;4.00;2.00;;;18.70;99.90;;;;;;5013828;28;20042;-78
2022/07/07 13:07:47;;;;;;;1.90;1.52;;;18.60;99.90;;;;;;5016244;28;20150;-77
2022/07/07 13:10:12;;;;;;;1.80;1.40;;;18.60;99.90;;;;;;5017241;28;20030;-77
2022/07/07 13:12:39;;;;;;;2.00;1.20;;;18.70;99.90;;;;;;5017332;28;20061;-77
2022/07/07 13:15:05;;;;;;;2.70;1.27;;;18.80;99.90;;;;;;5017092;28;20030;-78
2022/07/07 13:17:31;;;;;;;1.40;1.15;;;18.90;99.90;;;;;;5015425;28;20030;-77
2022/07/07 13:19:56;;;;;;;1.35;1.20;;;18.90;99.90;;;;;;5016742;28;20038;-78
2022/07/07 13:22:22;;;;;;;1.45;1.15;;;18.90;99.70;;;;;;5014870;28;20522;-77
2022/07/07 13:24:47;;;;;;;1.45;0.80;;;18.80;99.50;;;;;;5016872;28;20042;-77
2022/07/07 13:27:13;;;;;;;2.35;0.88;;;18.80;99.40;;;;;;5016749;28;20440;-78
2022/07/07 13:29:38;;;;;;;1.58;0.98;;;18.80;99.70;;;;;;5015639;28;20037;-78
2022/07/07 13:32:05;;;;;;;1.45;0.98;;;18.70;99.90;;;;;;5016805;28;20404;-77
2022/07/07 13:34:30;;;;;;;1.70;1.10;;;18.80;99.90;;;;;;5016277;28;20520;-77
2022/07/07 13:36:56;;;;;;;3.40;1.00;;;18.90;99.90;;;;;;5016345;28;20079;-77
2022/07/07 13:39:22;;;;;;;3.50;1.10;;;19.00;99.90;;;;;;5016891;28;20038;-78
2022/07/07 13:41:48;;;;;;;1.83;1.10;;;19.20;99.70;;;;;;5016629;28;20030;-77
2022/07/07 13:44:14;;;;;;;1.20;1.10;;;19.30;98.80;;;;;;5016399;28;20045;-78
2022/07/07 13:46:39;;;;;;;3.25;1.15;;;19.50;98.60;;;;;;5016461;28;20042;-78
2022/07/07 13:49:05;;;;;;;1.33;0.93;;;19.70;98.70;;;;;;5014898;28;20030;-78
2022/07/07 13:51:30;;;;;;;1.67;1.02;;;20.10;98.10;;;;;;5016747;28;20492;-78
2022/07/07 13:53:56;;;;;;;1.40;0.93;;;20.40;97.00;;;;;;5016764;28;20437;-77
2022/07/07 13:56:21;;;;;;;3.17;1.27;;;20.60;96.40;;;;;;5014917;28;20026;-77
2022/07/07 13:58:47;;;;;;;3.85;1.20;;;20.50;96.50;;;;;;5014834;28;20030;-78
2022/07/07 14:01:13;;;;;;;1.30;1.00;;;20.60;97.50;;;;;;5014611;28;20046;-78
2022/07/07 14:03:38;;;;;;;1.25;1.15;;;20.40;97.10;;;;;;5016416;28;20026;-78
2022/07/07 14:06:04;;;;;;;1.58;1.05;;;20.50;98.20;;;;;;5016163;28;20038;-78
2022/07/07 14:08:29;;;;;;;1.63;1.10;;;20.80;97.20;;;;;;5014972;28;20026;-78
2022/07/07 14:10:55;;;;;;;1.00;0.90;;;21.00;96.60;;;;;;5016095;28;20044;-78
2022/07/07 14:13:20;;;;;;;3.65;1.17;;;21.60;95.10;;;;;;5016247;28;20303;-78
2022/07/07 14:15:46;;;;;;;2.75;1.00;;;22.10;94.30;;;;;;5015987;28;20061;-78
2022/07/07 14:18:12;;;;;;;2.35;1.10;;;22.60;93.00;;;;;;5015317;28;20077;-78
2022/07/07 14:20:38;;;;;;;2.58;1.00;;;22.90;92.20;;;;;;5016170;28;20527;-78
2022/07/07 14:23:06;;;;;;;2.38;1.17;;;22.90;92.30;;;;;;5016308;28;20121;-78
2022/07/07 14:25:32;;;;;;;4.63;1.15;;;23.00;92.00;;;;;;5014562;28;20038;-78
2022/07/07 14:27:59;;;;;;;3.15;1.33;;;23.10;90.90;;;;;;5015812;28;20121;-78
2022/07/07 14:30:24;;;;;;;1.30;1.00;;;23.20;89.60;;;;;;5015793;28;20038;-78
2022/07/07 14:32:50;;;;;;;2.47;1.00;;;23.20;90.00;;;;;;5015919;28;20120;-78
2022/07/07 14:35:15;;;;;;;2.42;1.00;;;22.60;90.60;;;;;;5014521;28;20039;-78
2022/07/07 14:37:41;;;;;;;2.67;0.98;;;22.10;90.90;;;;;;5015815;28;20109;-78
2022/07/07 14:40:07;;;;;;;2.72;1.00;;;21.80;91.90;;;;;;5016034;28;20043;-78
2022/07/07 14:42:33;;;;;;;2.28;1.00;;;21.60;91.30;;;;;;5015587;28;20042;-78
2022/07/07 14:44:58;;;;;;;1.58;0.90;;;21.30;91.60;;;;;;5015670;28;20038;-78
2022/07/07 14:47:24;;;;;;;1.58;0.93;;;21.20;91.80;;;;;;5015339;28;20069;-78
2022/07/07 14:49:49;;;;;;;2.88;1.10;;;20.90;92.00;;;;;;5015525;28;20038;-78
2022/07/07 14:52:15;;;;;;;2.15;0.90;;;20.90;92.00;;;;;;5015291;28;20389;-78
2022/07/07 14:54:41;;;;;;;3.55;1.00;;;20.90;92.00;;;;;;5015576;28;20377;-78
2022/07/07 14:57:07;;;;;;;1.60;1.13;;;21.00;91.70;;;;;;5013860;28;20032;-78
2022/07/07 14:59:33;;;;;;;1.30;0.90;;;21.10;91.70;;;;;;5015639;28;20536;-78
2022/07/07 15:01:59;;;;;;;2.03;1.00;;;21.30;91.00;;;;;;5014822;28;20039;-78
2022/07/07 15:04:25;;;;;;;2.33;1.00;;;21.70;90.60;;;;;;5010939;28;20049;-77
2022/07/07 15:06:51;;;;;;;3.83;0.90;;;22.40;90.40;;;;;;5016584;28;20042;-80
2022/07/07 15:09:17;;;;;;;3.55;0.82;;;23.20;87.30;;;;;;5016580;28;20551;-78
2022/07/07 15:11:43;;;;;;;1.10;0.80;;;23.50;85.50;;;;;;5014659;28;20062;-79
2022/07/07 15:14:09;;;;;;;2.22;1.00;;;23.10;83.20;;;;;;5015943;28;20081;-79
2022/07/07 15:16:34;;;;;;;2.00;1.10;;;22.60;84.80;;;;;;5015880;28;20030;-78
